Time;durP1;ratioP1;P1;durP2;ratioP2;P2;SDS_P1;SDS_P2;PMS_P1;PMS_P2;Temp;Humidity;BMP_temperature;BMP_pressure;BME280_temperature;BME280_humidity;BME280_pressure;Samples;Min_cycle;Max_cycle;Signal;HPM_P1;HPM_P2
2023/04/02 00:01:42;;;;;;;40.57;7.77;;;16.10;61.50;;;;;;5030449;28;20204;-91
2023/04/02 00:04:22;;;;;;;61.27;9.33;;;16.00;61.40;;;;;;5028608;28;20204;-90
2023/04/02 00:06:54;;;;;;;49.80;8.97;;;16.00;61.40;;;;;;5030369;28;20207;-91
2023/04/02 00:09:37;;;;;;;42.67;8.70;;;16.00;61.40;;;;;;5028734;28;20312;-91
2023/04/02 00:12:24;;;;;;;36.13;7.40;;;16.00;61.50;;;;;;5030154;28;20233;-90
2023/04/02 00:14:54;;;;;;;35.93;7.63;;;16.00;61.40;;;;;;5024012;28;20197;-91
2023/04/02 00:17:23;;;;;;;46.47;8.73;;;16.00;61.40;;;;;;5013711;28;20291;-91
2023/04/02 00:19:55;;;;;;;41.20;8.23;;;16.00;61.40;;;;;;5029086;28;20201;-91
2023/04/02 00:22:32;;;;;;;35.97;7.40;;;16.00;61.50;;;;;;5024247;28;20212;-93
2023/04/02 00:25:05;;;;;;;39.17;8.20;;;16.00;61.40;;;;;;5021669;28;20567;-92
2023/04/02 00:27:33;;;;;;;67.27;10.50;;;16.00;61.40;;;;;;5029033;28;20250;-91
2023/04/02 00:30:01;;;;;;;41.77;8.17;;;16.00;61.40;;;;;;5028137;28;20596;-92
2023/04/02 00:32:31;;;;;;;36.83;8.57;;;15.90;61.40;;;;;;5030693;28;20210;-91
2023/04/02 00:34:59;;;;;;;47.13;8.93;;;15.90;61.30;;;;;;5029819;28;20297;-93
2023/04/02 00:37:37;;;;;;;46.20;8.90;;;16.00;61.50;;;;;;5029753;28;20211;-92
2023/04/02 00:40:10;;;;;;;43.73;8.60;;;16.00;61.50;;;;;;5015659;28;20291;-92
2023/04/02 00:42:40;;;;;;;34.90;7.80;;;16.00;61.50;;;;;;5029585;28;20577;-93
2023/04/02 00:45:17;;;;;;;49.40;8.97;;;16.00;61.50;;;;;;5029255;28;20203;-94
2023/04/02 00:47:47;;;;;;;58.13;9.77;;;16.00;61.50;;;;;;5029062;28;20208;-92
2023/04/02 00:50:23;;;;;;;38.60;8.63;;;16.00;61.50;;;;;;5029183;28;20240;-93
2023/04/02 00:52:52;;;;;;;60.97;10.07;;;15.90;61.30;;;;;;5029121;28;20204;-93
2023/04/02 00:55:23;;;;;;;37.77;8.63;;;15.90;61.30;;;;;;5010400;28;20205;-93
2023/04/02 00:57:54;;;;;;;46.17;9.33;;;15.90;61.30;;;;;;5028732;28;20196;-90
2023/04/02 01:00:28;;;;;;;45.07;9.33;;;15.90;61.50;;;;;;5026068;28;20209;-89
2023/04/02 01:03:33;;;;;;;31.13;8.40;;;15.90;61.30;;;;;;5011256;28;20247;-90
2023/04/02 01:06:03;;;;;;;32.03;9.27;;;15.90;61.30;;;;;;4998180;28;20587;-93
2023/04/02 01:08:43;;;;;;;31.63;8.17;;;15.90;61.40;;;;;;5030184;28;20212;-93
2023/04/02 01:11:27;;;;;;;45.03;9.57;;;15.90;61.40;;;;;;5028002;28;20221;-93
2023/04/02 01:14:02;;;;;;;37.27;8.83;;;15.90;61.40;;;;;;5030172;28;20235;-93
2023/04/02 01:16:41;;;;;;;39.23;8.80;;;15.80;61.20;;;;;;5028047;28;20251;-94
2023/04/02 01:19:30;;;;;;;41.27;8.90;;;15.90;61.40;;;;;;5025609;28;20206;-92
2023/04/02 01:22:01;;;;;;;42.63;8.17;;;15.90;61.40;;;;;;5029756;28;20209;-93
2023/04/02 01:24:36;;;;;;;34.07;10.00;;;15.90;61.40;;;;;;5029543;28;20593;-90
2023/04/02 01:27:07;;;;;;;52.40;9.87;;;15.90;61.40;;;;;;5009922;28;20205;-91
2023/04/02 01:29:38;;;;;;;47.60;9.53;;;15.90;61.30;;;;;;5022586;28;20209;-91
2023/04/02 01:32:07;;;;;;;46.53;9.63;;;15.80;61.20;;;;;;5024546;28;20233;-91
2023/04/02 01:34:35;;;;;;;31.00;8.60;;;15.90;61.40;;;;;;5023301;28;20201;-90
2023/04/02 01:37:21;;;;;;;35.70;8.40;;;15.90;61.40;;;;;;5027942;28;20210;-90
2023/04/02 01:40:00;;;;;;;50.73;10.03;;;15.90;61.40;;;;;;5024462;28;20218;-90
2023/04/02 01:42:34;;;;;;;40.43;8.67;;;15.80;61.20;;;;;;5028505;28;20211;-91
2023/04/02 01:45:05;;;;;;;39.80;8.93;;;15.80;61.20;;;;;;5028092;28;20205;-91
2023/04/02 01:47:32;;;;;;;44.13;9.47;;;15.80;61.20;;;;;;5028260;28;20212;-90
2023/04/02 01:50:03;;;;;;;41.13;9.37;;;15.80;61.20;;;;;;5027855;28;20220;-91
2023/04/02 01:52:39;;;;;;;43.23;9.80;;;15.80;61.20;;;;;;5031331;28;20221;-91
2023/04/02 01:55:09;;;;;;;33.30;8.00;;;15.80;61.20;;;;;;5030219;28;20216;-91
2023/04/02 01:57:36;;;;;;;39.67;9.30;;;15.80;61.20;;;;;;5027890;28;20278;-90
2023/04/02 02:00:12;;;;;;;32.77;8.67;;;15.80;61.20;;;;;;5010385;28;20201;-91
2023/04/02 02:02:39;;;;;;;34.13;8.63;;;15.80;61.30;;;;;;5020809;28;20260;-89
2023/04/02 02:05:12;;;;;;;43.57;9.77;;;15.80;61.30;;;;;;5024101;28;20219;-90
2023/04/02 02:07:39;;;;;;;37.43;9.20;;;15.80;61.20;;;;;;5008719;28;20205;-91
2023/04/02 02:10:08;;;;;;;62.50;11.37;;;15.80;61.40;;;;;;5021002;28;20235;-92
2023/04/02 02:12:34;;;;;;;43.70;9.40;;;15.80;61.30;;;;;;5020778;28;20730;-89
2023/04/02 02:15:02;;;;;;;35.50;8.80;;;15.80;61.40;;;;;;5026154;28;20228;-91
2023/04/02 02:17:33;;;;;;;44.47;9.37;;;15.80;61.40;;;;;;5027748;28;20284;-90
2023/04/02 02:20:01;;;;;;;45.50;10.10;;;15.80;61.40;;;;;;5025399;28;20651;-91
2023/04/02 02:22:33;;;;;;;58.93;10.23;;;15.80;61.30;;;;;;5026763;28;20206;-91
2023/04/02 02:25:04;;;;;;;35.57;9.03;;;15.80;61.20;;;;;;5025490;28;20247;-90
2023/04/02 02:27:54;;;;;;;38.70;9.73;;;15.90;61.40;;;;;;5025860;28;20214;-91
2023/04/02 02:30:26;;;;;;;46.37;9.80;;;15.80;61.30;;;;;;5024853;28;20216;-91
2023/04/02 02:33:01;;;;;;;37.87;9.07;;;15.80;61.30;;;;;;5026188;28;20212;-90
2023/04/02 02:35:32;;;;;;;44.43;9.27;;;15.80;61.30;;;;;;5025356;28;20669;-90
2023/04/02 02:38:20;;;;;;;68.83;11.37;;;15.80;61.30;;;;;;5019865;28;20205;-90
2023/04/02 02:40:50;;;;;;;61.43;11.10;;;15.80;61.20;;;;;;5018116;28;20213;-90
2023/04/02 02:43:18;;;;;;;56.77;11.07;;;15.80;61.20;;;;;;5029068;28;20197;-91
2023/04/02 02:45:47;;;;;;;43.00;10.00;;;15.80;61.20;;;;;;5030742;28;20707;-91
2023/04/02 02:48:19;;;;;;;33.87;8.67;;;15.80;61.20;;;;;;5029994;28;20209;-90
2023/04/02 02:50:46;;;;;;;54.30;9.97;;;15.80;61.20;;;;;;5029078;28;20240;-90
2023/04/02 02:53:19;;;;;;;39.90;9.27;;;15.80;61.30;;;;;;5029217;28;20211;-90
2023/04/02 02:55:48;;;;;;;42.50;9.57;;;15.80;62.10;;;;;;5028264;28;20773;-90
2023/04/02 02:58:17;;;;;;;37.20;8.43;;;15.80;61.20;;;;;;5029752;28;20207;-90
2023/04/02 03:00:47;;;;;;;46.33;9.87;;;15.80;61.20;;;;;;5030052;28;20223;-93
2023/04/02 03:03:20;;;;;;;40.93;9.13;;;15.80;61.20;;;;;;5030172;28;20209;-90
2023/04/02 03:05:51;;;;;;;53.40;10.23;;;15.80;61.20;;;;;;5028307;28;20205;-90
2023/04/02 03:08:27;;;;;;;65.67;10.97;;;15.80;61.20;;;;;;5008684;28;20247;-90
2023/04/02 03:10:58;;;;;;;36.17;8.97;;;15.80;61.20;;;;;;5029505;28;20240;-90
2023/04/02 03:13:31;;;;;;;59.20;10.93;;;15.80;61.20;;;;;;5029459;28;20206;-90
2023/04/02 03:16:03;;;;;;;46.70;9.70;;;15.80;61.20;;;;;;5027101;28;20210;-90
2023/04/02 03:18:41;;;;;;;50.97;10.03;;;15.80;61.20;;;;;;5028689;28;20223;-90
2023/04/02 03:21:19;;;;;;;36.30;8.63;;;15.90;61.40;;;;;;5029136;28;20218;-90
2023/04/02 03:23:48;;;;;;;44.60;9.70;;;15.80;61.20;;;;;;5029300;28;20613;-90
2023/04/02 03:26:22;;;;;;;36.80;8.93;;;15.70;61.10;;;;;;5026324;28;20210;-90
2023/04/02 03:28:54;;;;;;;42.17;9.53;;;15.80;61.20;;;;;;5028527;28;20650;-91
2023/04/02 03:31:26;;;;;;;40.73;9.43;;;15.80;61.20;;;;;;5028969;28;20220;-93
2023/04/02 03:33:58;;;;;;;43.60;9.43;;;15.80;61.20;;;;;;5029495;28;20235;-94
2023/04/02 03:36:30;;;;;;;40.00;9.17;;;15.80;61.20;;;;;;5027150;28;20296;-92
2023/04/02 03:39:04;;;;;;;56.87;11.10;;;15.80;61.20;;;;;;5029550;28;20239;-93
2023/04/02 03:41:37;;;;;;;38.70;8.97;;;15.80;61.20;;;;;;5030987;28;20211;-91
2023/04/02 03:44:12;;;;;;;40.67;9.50;;;15.80;61.20;;;;;;5030517;28;20209;-92
2023/04/02 03:46:42;;;;;;;35.53;9.47;;;15.80;61.20;;;;;;5031138;28;20196;-91
2023/04/02 03:49:14;;;;;;;43.13;10.07;;;15.80;61.20;;;;;;5028874;28;20201;-90
2023/04/02 03:51:50;;;;;;;47.93;10.30;;;15.80;61.20;;;;;;5028854;28;20599;-90
2023/04/02 03:54:18;;;;;;;39.40;9.30;;;15.80;61.30;;;;;;5028839;28;20215;-89
2023/04/02 03:56:46;;;;;;;53.00;10.60;;;15.80;61.20;;;;;;5025817;28;20235;-90
2023/04/02 03:59:21;;;;;;;38.67;9.43;;;15.70;61.10;;;;;;5026775;28;20314;-90
2023/04/02 04:01:55;;;;;;;45.10;9.93;;;15.80;61.20;;;;;;5027155;28;20196;-91
2023/04/02 04:04:27;;;;;;;33.77;8.63;;;15.80;61.30;;;;;;5029342;28;20469;-92
2023/04/02 04:06:56;;;;;;;47.50;9.40;;;15.70;61.10;;;;;;5012135;28;20200;-93
2023/04/02 04:09:27;;;;;;;37.43;9.23;;;15.80;62.00;;;;;;5028247;28;20197;-91
2023/04/02 04:12:02;;;;;;;46.63;9.53;;;15.70;61.10;;;;;;5029175;28;20234;-90
2023/04/02 04:14:32;;;;;;;35.37;8.83;;;15.70;61.10;;;;;;5027966;28;20200;-90
2023/04/02 04:17:04;;;;;;;38.10;8.77;;;15.80;61.30;;;;;;5028485;28;20207;-91
2023/04/02 04:19:44;;;;;;;65.00;11.43;;;15.70;61.10;;;;;;5028921;28;20226;-90
2023/04/02 04:22:14;;;;;;;33.17;8.50;;;15.70;61.10;;;;;;5028970;28;20686;-90
2023/04/02 04:24:44;;;;;;;42.53;8.87;;;15.70;61.10;;;;;;5026094;28;20226;-91
2023/04/02 04:27:21;;;;;;;42.60;9.70;;;15.70;61.10;;;;;;5028783;28;20198;-90
2023/04/02 04:29:55;;;;;;;36.30;8.80;;;15.70;61.10;;;;;;5024965;28;20215;-90
2023/04/02 04:32:31;;;;;;;43.53;8.63;;;15.70;61.10;;;;;;5025724;28;20228;-90
2023/04/02 04:35:05;;;;;;;44.37;9.67;;;15.70;61.10;;;;;;5027712;28;20284;-91
2023/04/02 04:37:35;;;;;;;34.50;9.03;;;15.70;61.10;;;;;;5029116;28;20208;-90
2023/04/02 04:40:10;;;;;;;65.13;10.83;;;15.70;61.10;;;;;;5026931;28;20205;-90
2023/04/02 04:42:40;;;;;;;43.57;9.73;;;15.70;61.10;;;;;;5028572;28;20208;-93
2023/04/02 04:45:21;;;;;;;63.73;10.40;;;15.60;61.00;;;;;;5028156;28;20325;-94
2023/04/02 04:47:54;;;;;;;44.50;9.10;;;15.60;61.00;;;;;;5024735;28;20201;-93
2023/04/02 04:50:30;;;;;;;40.83;9.20;;;15.70;61.10;;;;;;5029314;28;20208;-91
2023/04/02 04:52:57;;;;;;;56.03;10.30;;;15.60;61.10;;;;;;5011768;28;20231;-93
2023/04/02 04:55:30;;;;;;;63.13;10.83;;;15.60;61.00;;;;;;5031935;28;20437;-92
2023/04/02 04:58:01;;;;;;;44.50;8.80;;;15.60;61.00;;;;;;5011191;28;20208;-93
2023/04/02 05:00:43;;;;;;;48.00;9.40;;;15.60;61.00;;;;;;5029284;28;20215;-93
2023/04/02 05:03:20;;;;;;;44.73;9.03;;;15.60;61.00;;;;;;5026087;28;20236;-94
2023/04/02 05:05:51;;;;;;;37.40;9.30;;;15.60;61.00;;;;;;5027038;28;20280;-90
2023/04/02 05:08:22;;;;;;;46.57;9.23;;;15.60;61.00;;;;;;5010545;28;20200;-91
2023/04/02 05:10:53;;;;;;;50.60;9.43;;;15.60;61.00;;;;;;5028031;28;20263;-90
2023/04/02 05:13:24;;;;;;;51.63;9.73;;;15.60;61.00;;;;;;5027159;28;20235;-92
2023/04/02 05:15:58;;;;;;;26.40;7.27;;;15.60;61.00;;;;;;5028652;28;20234;-90
2023/04/02 05:18:37;;;;;;;42.73;9.00;;;15.60;61.00;;;;;;5024210;28;20220;-90
2023/04/02 05:21:14;;;;;;;39.57;8.10;;;15.60;61.00;;;;;;5029263;28;20204;-90
2023/04/02 05:23:48;;;;;;;37.27;8.23;;;15.60;61.00;;;;;;5030751;28;20894;-90
2023/04/02 05:26:19;;;;;;;35.03;8.53;;;15.50;60.90;;;;;;5032725;28;20668;-90
2023/04/02 05:28:50;;;;;;;30.43;7.50;;;15.60;61.00;;;;;;5027728;28;20213;-90
2023/04/02 05:31:24;;;;;;;31.83;7.70;;;15.50;60.90;;;;;;5024844;28;20520;-91
2023/04/02 05:33:52;;;;;;;40.57;8.50;;;15.60;61.00;;;;;;5026523;28;20212;-91
2023/04/02 05:36:28;;;;;;;67.80;10.17;;;15.70;61.10;;;;;;5026288;28;20205;-92
2023/04/02 05:38:56;;;;;;;32.70;7.73;;;15.50;60.90;;;;;;5026625;28;20614;-92
2023/04/02 05:41:27;;;;;;;43.80;9.50;;;15.60;61.00;;;;;;5024345;28;20585;-90
2023/04/02 05:44:03;;;;;;;37.00;8.47;;;15.60;61.00;;;;;;5027870;28;20213;-90
2023/04/02 05:46:36;;;;;;;67.10;10.83;;;15.60;61.00;;;;;;5026178;28;20204;-92
2023/04/02 05:49:09;;;;;;;55.53;9.30;;;15.50;60.90;;;;;;5024512;28;20209;-91
2023/04/02 05:51:42;;;;;;;45.37;8.93;;;15.50;60.90;;;;;;5025265;28;20228;-92
2023/04/02 05:54:22;;;;;;;38.67;8.27;;;15.60;61.00;;;;;;5027851;28;20212;-91
2023/04/02 05:56:56;;;;;;;42.27;8.83;;;15.60;61.00;;;;;;5028431;28;20211;-90
2023/04/02 05:59:26;;;;;;;32.70;7.63;;;15.60;61.00;;;;;;5027015;28;20219;-90
2023/04/02 06:02:01;;;;;;;37.40;8.33;;;15.50;60.90;;;;;;5028265;28;20205;-90
2023/04/02 06:04:35;;;;;;;39.90;8.00;;;15.60;61.00;;;;;;5028537;28;20266;-94
2023/04/02 06:07:11;;;;;;;42.13;8.87;;;15.50;60.90;;;;;;5028860;28;20212;-91
2023/04/02 06:09:42;;;;;;;43.73;8.53;;;15.50;60.90;;;;;;5027767;28;20208;-94
2023/04/02 06:12:26;;;;;;;38.43;8.23;;;15.50;60.90;;;;;;5006271;28;20263;-94
2023/04/02 06:14:53;;;;;;;45.80;8.83;;;15.50;60.90;;;;;;5014469;28;20759;-91
2023/04/02 06:17:21;;;;;;;44.93;9.37;;;15.50;60.90;;;;;;5034736;28;20200;-94
2023/04/02 06:19:49;;;;;;;36.87;8.00;;;15.50;60.90;;;;;;5034842;28;20655;-92
2023/04/02 06:22:23;;;;;;;40.80;8.53;;;15.50;60.90;;;;;;5034637;28;20214;-93
2023/04/02 06:24:57;;;;;;;42.57;9.03;;;15.50;60.90;;;;;;5027808;28;20307;-91
2023/04/02 06:27:26;;;;;;;36.03;8.30;;;15.50;60.90;;;;;;5034922;28;20280;-92
2023/04/02 06:29:59;;;;;;;63.20;10.83;;;15.50;60.90;;;;;;5033350;28;20330;-91
2023/04/02 06:32:26;;;;;;;45.30;9.27;;;15.50;60.90;;;;;;5034059;28;20253;-91
2023/04/02 06:34:54;;;;;;;50.53;9.90;;;15.50;60.90;;;;;;5031437;28;20217;-91
2023/04/02 06:37:29;;;;;;;47.37;9.33;;;15.50;60.90;;;;;;5031693;28;20207;-91
2023/04/02 06:39:57;;;;;;;45.10;9.73;;;15.40;60.80;;;;;;5033278;28;20278;-91
2023/04/02 06:42:27;;;;;;;50.43;10.27;;;15.50;60.90;;;;;;5033669;28;20667;-91
2023/04/02 06:44:54;;;;;;;37.03;9.10;;;15.40;60.80;;;;;;5028648;28;20813;-90
2023/04/02 06:47:30;;;;;;;35.77;9.10;;;15.40;60.80;;;;;;5033096;28;20201;-91
2023/04/02 06:50:04;;;;;;;47.87;9.80;;;15.50;60.90;;;;;;5033696;28;20266;-92
2023/04/02 06:52:37;;;;;;;47.90;10.40;;;15.50;60.90;;;;;;5033675;28;20980;-91
2023/04/02 06:55:25;;;;;;;47.97;10.27;;;15.40;60.80;;;;;;5032304;28;20205;-91
2023/04/02 06:57:52;;;;;;;48.77;10.87;;;15.40;60.80;;;;;;5033359;28;20207;-90
2023/04/02 07:00:25;;;;;;;45.37;9.93;;;15.40;60.80;;;;;;5032948;28;20572;-91
2023/04/02 07:02:55;;;;;;;65.33;11.07;;;15.50;60.90;;;;;;5033081;28;20207;-92
2023/04/02 07:05:22;;;;;;;65.23;11.70;;;15.40;60.80;;;;;;5030730;28;20313;-91
2023/04/02 07:07:50;;;;;;;43.30;9.07;;;15.40;60.80;;;;;;5030531;28;20853;-91
2023/04/02 07:10:19;;;;;;;65.77;11.20;;;15.40;60.80;;;;;;5031041;28;20220;-92
2023/04/02 07:12:45;;;;;;;45.20;9.80;;;15.40;60.80;;;;;;5030666;28;20327;-91
2023/04/02 07:15:15;;;;;;;42.53;9.37;;;15.40;60.80;;;;;;5033109;28;20215;-91
2023/04/02 07:17:42;;;;;;;48.50;9.93;;;15.40;60.80;;;;;;5030025;28;20216;-91
2023/04/02 07:20:24;;;;;;;42.03;9.53;;;15.40;60.80;;;;;;5031948;28;20210;-91
2023/04/02 07:22:53;;;;;;;39.83;8.97;;;15.30;60.70;;;;;;5033505;28;20274;-91
2023/04/02 07:25:20;;;;;;;43.43;9.63;;;15.40;60.80;;;;;;5031740;28;20231;-91
2023/04/02 07:27:47;;;;;;;43.80;9.43;;;15.30;60.70;;;;;;5026649;28;20299;-91
2023/04/02 07:30:14;;;;;;;43.57;9.53;;;15.40;60.80;;;;;;5028794;28;20742;-91
2023/04/02 07:32:41;;;;;;;53.70;10.10;;;15.30;60.70;;;;;;5022343;28;20341;-91
2023/04/02 07:35:10;;;;;;;47.63;9.17;;;15.30;61.50;;;;;;5029581;28;20207;-90
2023/04/02 07:37:37;;;;;;;51.33;10.20;;;15.30;60.70;;;;;;5028330;28;20266;-91
2023/04/02 07:40:07;;;;;;;38.23;9.10;;;15.30;60.70;;;;;;5030630;28;20201;-91
2023/04/02 07:42:35;;;;;;;42.40;9.57;;;15.30;60.70;;;;;;5028408;28;20211;-91
2023/04/02 07:45:02;;;;;;;39.83;9.33;;;15.30;60.70;;;;;;5030219;28;20196;-91
2023/04/02 07:47:30;;;;;;;39.03;9.47;;;15.30;60.70;;;;;;5030543;28;20572;-92
2023/04/02 07:49:57;;;;;;;35.53;8.70;;;15.30;60.70;;;;;;5030239;28;20840;-90
2023/04/02 07:52:24;;;;;;;37.23;9.30;;;15.40;60.80;;;;;;5029295;28;20255;-91
2023/04/02 07:54:51;;;;;;;39.27;9.27;;;15.30;60.70;;;;;;5012757;28;20200;-91
2023/04/02 07:57:19;;;;;;;38.07;8.90;;;15.30;60.70;;;;;;5029895;28;20287;-91
2023/04/02 07:59:47;;;;;;;52.10;10.30;;;15.40;61.60;;;;;;5030894;28;20200;-91
2023/04/02 08:02:20;;;;;;;40.73;9.83;;;15.30;60.70;;;;;;5026429;28;20200;-90
2023/04/02 08:04:48;;;;;;;56.73;10.27;;;15.30;60.70;;;;;;5027904;28;20892;-91
2023/04/02 08:07:15;;;;;;;49.27;10.07;;;15.30;60.70;;;;;;5029488;28;20212;-91
2023/04/02 08:09:42;;;;;;;42.70;8.87;;;15.30;60.70;;;;;;5029580;28;20332;-90
2023/04/02 08:12:12;;;;;;;54.60;10.73;;;15.30;60.70;;;;;;5027779;28;20209;-90
2023/04/02 08:14:40;;;;;;;34.70;8.07;;;15.30;60.70;;;;;;5026413;28;20215;-91
2023/04/02 08:19:48;;;;;;;48.30;9.17;;;15.30;60.70;;;;;;4997582;28;20211;-91
2023/04/02 08:22:15;;;;;;;52.00;10.23;;;15.30;60.70;;;;;;5027657;28;20264;-91
2023/04/02 08:24:44;;;;;;;59.40;10.63;;;15.20;60.60;;;;;;5028108;28;20221;-94
2023/04/02 08:27:14;;;;;;;50.30;9.70;;;15.30;60.70;;;;;;5028885;28;20304;-96
2023/04/02 08:29:42;;;;;;;51.07;9.70;;;15.30;60.70;;;;;;5026785;28;20299;-94
2023/04/02 08:32:12;;;;;;;49.00;10.20;;;15.30;60.70;;;;;;5027513;28;20609;-90
2023/04/02 08:34:38;;;;;;;42.40;9.53;;;15.30;60.70;;;;;;5029670;28;20567;-93
2023/04/02 08:37:06;;;;;;;56.27;10.03;;;15.30;60.70;;;;;;5007905;28;20205;-94
2023/04/02 08:39:35;;;;;;;39.60;8.30;;;15.20;60.50;;;;;;5030298;28;20728;-94
2023/04/02 08:42:07;;;;;;;41.87;8.93;;;15.30;60.70;;;;;;5031263;28;20197;-95
2023/04/02 08:44:47;;;;;;;34.53;8.53;;;15.30;60.70;;;;;;5026679;28;20201;-92
2023/04/02 08:47:17;;;;;;;51.43;8.73;;;15.30;60.70;;;;;;5036504;28;20303;-94
2023/04/02 08:49:52;;;;;;;40.70;8.83;;;15.30;60.70;;;;;;5030823;28;20259;-94
2023/04/02 08:52:23;;;;;;;41.97;9.17;;;15.30;60.70;;;;;;5039253;28;20223;-96
2023/04/02 08:54:52;;;;;;;54.43;10.13;;;15.40;60.80;;;;;;5041337;28;20215;-95
2023/04/02 08:57:31;;;;;;;42.03;9.43;;;15.30;60.60;;;;;;5034320;28;20238;-95
2023/04/02 09:00:06;;;;;;;47.97;9.67;;;15.30;60.70;;;;;;5035140;28;20202;-95
2023/04/02 09:02:40;;;;;;;38.33;9.17;;;15.20;60.50;;;;;;5015709;28;20205;-95
2023/04/02 09:05:17;;;;;;;27.97;8.07;;;15.20;60.50;;;;;;5015386;28;20287;-95
2023/04/02 09:07:45;;;;;;;35.03;8.53;;;15.30;60.60;;;;;;5022461;28;20303;-96
2023/04/02 09:10:21;;;;;;;37.93;8.93;;;15.30;60.60;;;;;;5025631;28;20236;-94
2023/04/02 09:13:18;;;;;;;55.37;9.53;;;15.30;60.60;;;;;;5037565;28;20253;-96
2023/04/02 09:15:47;;;;;;;42.43;9.33;;;15.40;60.80;;;;;;5025377;28;20215;-95
2023/04/02 09:18:16;;;;;;;41.87;8.43;;;15.30;60.70;;;;;;5040101;28;20200;-96
2023/04/02 09:20:48;;;;;;;34.17;7.80;;;15.30;60.70;;;;;;5041002;28;20335;-95
2023/04/02 09:23:18;;;;;;;36.03;8.70;;;15.30;60.70;;;;;;5034648;28;20220;-94
2023/04/02 09:25:48;;;;;;;34.47;8.37;;;15.30;60.70;;;;;;5040900;28;20229;-94
2023/04/02 09:28:19;;;;;;;33.57;8.23;;;15.20;60.50;;;;;;5036692;28;20210;-95
2023/04/02 09:30:59;;;;;;;34.23;8.10;;;15.30;60.60;;;;;;5041527;28;20196;-95
2023/04/02 09:33:43;;;;;;;30.17;7.93;;;15.20;60.50;;;;;;5041804;28;20274;-95
2023/04/02 09:36:33;;;;;;;36.57;8.47;;;15.20;60.50;;;;;;5039819;28;20208;-95
2023/04/02 09:39:05;;;;;;;46.43;9.03;;;15.20;60.60;;;;;;5030267;28;20259;-96
2023/04/02 09:41:37;;;;;;;34.43;7.83;;;15.30;60.70;;;;;;5025911;28;20233;-94
2023/04/02 09:44:22;;;;;;;29.27;8.37;;;15.20;60.50;;;;;;5019938;28;20208;-95
2023/04/02 09:46:54;;;;;;;32.57;7.80;;;15.20;60.50;;;;;;5018972;28;20209;-96
2023/04/02 09:49:29;;;;;;;35.87;8.33;;;15.30;60.70;;;;;;5036605;28;20212;-95
2023/04/02 09:52:27;;;;;;;35.93;9.43;;;15.20;60.50;;;;;;5042189;28;20696;-95
2023/04/02 09:55:25;;;;;;;36.23;8.37;;;15.20;60.50;;;;;;4979843;28;20245;-95
2023/04/02 09:58:08;;;;;;;40.43;9.17;;;15.20;60.50;;;;;;4940002;29;20205;-94
2023/04/02 10:00:35;;;;;;;36.83;8.50;;;15.20;60.50;;;;;;4950805;28;20261;-95
2023/04/02 10:03:19;;;;;;;41.27;9.33;;;15.20;60.50;;;;;;4979298;28;20203;-94
2023/04/02 10:05:47;;;;;;;39.77;7.80;;;15.20;60.50;;;;;;4973086;28;20788;-95
2023/04/02 10:08:23;;;;;;;29.57;8.20;;;15.20;60.50;;;;;;4980452;28;20207;-96
2023/04/02 10:10:55;;;;;;;31.87;7.83;;;15.20;60.60;;;;;;5040240;28;20204;-94
2023/04/02 10:13:27;;;;;;;36.33;8.73;;;15.20;60.50;;;;;;5040172;28;20284;-95
2023/04/02 10:15:58;;;;;;;38.37;8.07;;;15.20;60.50;;;;;;5038824;28;20219;-95
2023/04/02 10:18:37;;;;;;;29.67;7.60;;;15.20;60.60;;;;;;5019863;28;20277;-94
2023/04/02 10:21:14;;;;;;;31.73;7.50;;;15.20;60.50;;;;;;5034424;28;20237;-95
2023/04/02 10:23:41;;;;;;;41.07;8.67;;;15.20;60.50;;;;;;5039236;28;20228;-95
2023/04/02 10:29:19;;;;;;;30.10;8.30;;;15.20;60.50;;;;;;5018765;28;20203;-96
2023/04/02 10:31:56;;;;;;;28.77;8.07;;;15.20;60.50;;;;;;5042147;28;20220;-95
2023/04/02 10:34:34;;;;;;;37.77;8.33;;;15.20;60.70;;;;;;5040265;28;20238;-95
2023/04/02 10:37:21;;;;;;;29.87;7.73;;;15.20;60.50;;;;;;5037165;28;20208;-96
2023/04/02 10:40:21;;;;;;;40.20;8.37;;;15.20;60.50;;;;;;5035704;28;20193;-95
2023/04/02 10:42:58;;;;;;;34.87;7.57;;;15.20;60.50;;;;;;4969881;28;20205;-94
2023/04/02 10:49:10;;;;;;;31.63;7.47;;;15.20;60.50;;;;;;5024005;28;20232;-95
2023/04/02 10:51:44;;;;;;;32.97;6.97;;;15.30;60.70;;;;;;5036332;28;20276;-95
2023/04/02 10:54:33;;;;;;;37.67;7.37;;;15.20;60.50;;;;;;5040979;28;20232;-95
2023/04/02 10:57:08;;;;;;;34.93;7.33;;;15.20;60.50;;;;;;5039258;28;20250;-95
2023/04/02 10:59:41;;;;;;;26.10;6.53;;;15.20;60.50;;;;;;5024911;28;20208;-95
2023/04/02 11:02:26;;;;;;;34.47;7.20;;;15.20;60.50;;;;;;5042598;28;20208;-95
2023/04/02 11:04:55;;;;;;;24.87;6.10;;;15.20;60.50;;;;;;5045537;28;20212;-95
2023/04/02 11:07:26;;;;;;;26.40;6.17;;;15.20;60.50;;;;;;5044796;28;20212;-95
2023/04/02 11:09:57;;;;;;;30.63;7.47;;;15.20;60.50;;;;;;5045574;28;20209;-95
2023/04/02 11:12:31;;;;;;;36.47;7.50;;;15.20;60.50;;;;;;5044580;28;20723;-95
2023/04/02 11:15:04;;;;;;;25.87;6.40;;;15.30;60.70;;;;;;5044971;28;20231;-95
2023/04/02 11:17:38;;;;;;;39.23;7.33;;;15.30;60.70;;;;;;5043559;28;20221;-96
2023/04/02 11:20:42;;;;;;;32.17;6.43;;;15.20;60.50;;;;;;5031583;28;20257;-96
2023/04/02 11:23:20;;;;;;;33.80;6.73;;;15.30;60.70;;;;;;5035419;28;20243;-96
2023/04/02 11:25:49;;;;;;;35.07;7.13;;;15.30;60.70;;;;;;5041150;28;20212;-95
2023/04/02 11:28:41;;;;;;;43.50;8.17;;;15.20;60.50;;;;;;5039733;28;20216;-96
2023/04/02 11:31:36;;;;;;;24.93;6.70;;;15.30;60.60;;;;;;5040900;28;20376;-95
2023/04/02 11:34:14;;;;;;;28.73;6.77;;;15.30;60.70;;;;;;5032042;28;20267;-95
2023/04/02 11:37:08;;;;;;;42.33;7.00;;;15.30;60.70;;;;;;5041237;28;20276;-96
2023/04/02 11:42:26;;;;;;;40.07;6.93;;;15.20;60.50;;;;;;5097567;22;20245;-96
2023/04/02 11:45:25;;;;;;;29.63;6.37;;;15.30;60.70;;;;;;5058576;28;20219;-96
2023/04/02 11:48:36;;;;;;;32.87;6.97;;;15.30;60.70;;;;;;5055649;28;20213;-95
2023/04/02 11:51:32;;;;;;;49.93;8.40;;;15.30;60.70;;;;;;4974433;28;20210;-95
2023/04/02 11:54:51;;;;;;;43.60;8.13;;;15.30;60.70;;;;;;5048558;28;20657;-95
2023/04/02 11:57:29;;;;;;;60.07;9.13;;;15.30;60.70;;;;;;5053023;28;20295;-93
2023/04/02 12:04:02;;;;;;;48.63;8.40;;;15.30;60.70;;;;;;5032607;28;20219;-96
2023/04/02 12:06:47;;;;;;;39.30;7.57;;;15.20;60.60;;;;;;5046002;28;20269;-95
2023/04/02 12:09:29;;;;;;;36.83;7.40;;;15.30;60.70;;;;;;5054276;28;20206;-96
2023/04/02 12:15:46;;;;;;;37.47;7.43;;;15.30;60.60;;;;;;5051239;28;20238;-95
2023/04/02 12:18:17;;;;;;;42.67;7.60;;;15.20;60.50;;;;;;5040999;28;20207;-95
2023/04/02 12:20:50;;;;;;;41.80;8.20;;;15.30;60.60;;;;;;5055751;28;20233;-96
2023/04/02 12:23:23;;;;;;;55.07;9.57;;;15.20;60.50;;;;;;5056394;28;20296;-95
2023/04/02 12:29:28;;;;;;;33.10;6.97;;;15.30;60.70;;;;;;5059298;28;20226;-96
2023/04/02 12:31:59;;;;;;;29.33;7.77;;;15.30;60.70;;;;;;5056526;28;20219;-95
2023/04/02 12:34:29;;;;;;;31.10;7.10;;;15.20;60.50;;;;;;5052300;28;20252;-95
2023/04/02 12:37:02;;;;;;;35.33;7.33;;;15.30;60.60;;;;;;5046063;28;20262;-96
2023/04/02 12:39:31;;;;;;;37.20;7.57;;;15.30;60.70;;;;;;5041957;28;20258;-96
2023/04/02 12:41:59;;;;;;;38.23;8.00;;;15.20;60.50;;;;;;5044141;28;20212;-95
2023/04/02 12:44:29;;;;;;;33.77;7.87;;;15.30;60.50;;;;;;5054784;28;20211;-95
2023/04/02 12:47:05;;;;;;;33.33;7.33;;;15.20;60.50;;;;;;5054245;28;20619;-95
2023/04/02 12:49:36;;;;;;;37.80;8.00;;;15.20;60.40;;;;;;5054442;28;20207;-96
2023/04/02 12:52:08;;;;;;;30.43;7.03;;;15.30;60.60;;;;;;5053744;28;20284;-95
2023/04/02 12:58:38;;;;;;;51.27;8.37;;;15.20;60.60;;;;;;5046573;28;20201;-96
2023/04/02 13:04:04;;;;;;;34.27;8.40;;;15.30;60.60;;;;;;5046480;28;20207;-96
2023/04/02 13:06:32;;;;;;;37.23;7.67;;;15.30;60.70;;;;;;5055677;28;20686;-96
2023/04/02 13:09:01;;;;;;;43.17;9.10;;;15.30;60.60;;;;;;5053776;28;20202;-95
2023/04/02 13:11:38;;;;;;;45.13;8.90;;;15.30;60.50;;;;;;5053153;28;20252;-96
2023/04/02 13:14:15;;;;;;;49.57;9.17;;;15.20;60.40;;;;;;5052602;28;20231;-96
2023/04/02 13:17:11;;;;;;;35.03;7.67;;;15.30;60.50;;;;;;5051150;28;20298;-95
2023/04/02 13:23:04;;;;;;;35.93;7.77;;;15.30;60.40;;;;;;5035564;28;20210;-95
2023/04/02 13:25:35;;;;;;;32.87;8.17;;;15.30;60.40;;;;;;5053633;28;20204;-96
2023/04/02 13:28:03;;;;;;;42.60;8.87;;;15.30;60.50;;;;;;5050426;28;20209;-96
2023/04/02 13:30:30;;;;;;;48.03;8.63;;;15.20;60.40;;;;;;5053110;28;20216;-96
2023/04/02 13:33:00;;;;;;;58.63;10.17;;;15.20;60.40;;;;;;5049772;28;20225;-96
2023/04/02 13:35:27;;;;;;;42.13;8.87;;;15.30;60.50;;;;;;5030880;28;20251;-96
2023/04/02 13:37:54;;;;;;;46.57;8.97;;;15.30;60.40;;;;;;5046737;28;20253;-96
2023/04/02 13:40:22;;;;;;;33.23;7.50;;;15.30;60.40;;;;;;5052545;28;20218;-96
2023/04/02 13:42:50;;;;;;;38.87;8.20;;;15.30;60.40;;;;;;5052751;28;20206;-96